createdAt,value
2019-02-09T00:01:02.177Z,81.10
2019-02-09T00:03:42.046Z,80.90
2019-02-09T00:06:22.360Z,79.70
2019-02-09T00:09:03.944Z,80.40
2019-02-09T00:11:43.761Z,81.10
2019-02-09T00:14:23.904Z,81.60
2019-02-09T00:17:03.960Z,81.20
2019-02-09T00:19:44.128Z,82.30
2019-02-09T00:22:24.532Z,81.70
2019-02-09T00:25:04.648Z,82.40
2019-02-09T00:27:44.753Z,83.20
2019-02-09T00:30:25.021Z,83.80
2019-02-09T00:33:05.222Z,84.60
2019-02-09T00:35:45.282Z,84.90
2019-02-09T00:38:25.526Z,85.00
2019-02-09T00:41:05.706Z,84.90
2019-02-09T00:43:46.124Z,85.10
2019-02-09T00:46:26.082Z,85.10
2019-02-09T00:49:06.148Z,85.60
2019-02-09T00:51:46.232Z,86.20
2019-02-09T00:54:26.634Z,85.70
2019-02-09T00:57:06.812Z,85.90
2019-02-09T00:59:53.832Z,86.00
2019-02-09T01:02:29.203Z,86.60
2019-02-09T01:05:09.668Z,85.70
2019-02-09T01:07:49.756Z,85.70
2019-02-09T01:10:30.004Z,86.60
2019-02-09T01:13:10.390Z,86.80
2019-02-09T01:15:50.710Z,87.90
2019-02-09T01:18:31.122Z,86.60
2019-02-09T01:21:11.133Z,86.10
2019-02-09T01:23:51.270Z,85.90
2019-02-09T01:26:35.000Z,85.70
2019-02-09T01:29:14.820Z,85.00
2019-02-09T01:31:55.266Z,85.00
2019-02-09T01:34:35.170Z,84.60
2019-02-09T01:37:15.574Z,84.60
2019-02-09T01:39:55.564Z,84.40
2019-02-09T01:42:35.596Z,84.20
2019-02-09T01:45:15.636Z,83.90
2019-02-09T01:47:55.624Z,83.10
2019-02-09T01:50:35.797Z,83.50
2019-02-09T01:53:15.390Z,82.70
2019-02-09T01:55:55.630Z,82.70
2019-02-09T01:58:36.020Z,83.00
2019-02-09T02:01:16.068Z,82.20
2019-02-09T02:03:56.128Z,81.90
2019-02-09T02:06:36.264Z,81.50
2019-02-09T02:09:16.298Z,81.40
2019-02-09T02:11:56.456Z,80.50
2019-02-09T02:14:36.726Z,78.80
2019-02-09T02:17:16.758Z,79.20
2019-02-09T02:19:57.096Z,79.00
2019-02-09T02:22:37.199Z,78.80
2019-02-09T02:25:17.540Z,78.30
2019-02-09T02:27:57.616Z,78.20
2019-02-09T02:30:38.204Z,78.10
2019-02-09T02:33:18.336Z,78.00
2019-02-09T02:35:58.729Z,77.90
2019-02-09T02:38:38.481Z,77.00
2019-02-09T02:41:18.802Z,77.10
2019-02-09T02:43:58.872Z,76.60
2019-02-09T02:46:39.379Z,76.80
2019-02-09T02:49:19.705Z,76.40
2019-02-09T02:51:59.732Z,75.80
2019-02-09T02:54:39.940Z,76.40
2019-02-09T02:57:20.016Z,76.90
2019-02-09T03:00:00.227Z,76.80
2019-02-09T03:02:40.304Z,77.50
2019-02-09T03:05:20.590Z,77.30
2019-02-09T03:08:00.645Z,77.30
2019-02-09T03:10:40.717Z,77.90
2019-02-09T03:13:20.867Z,77.90
2019-02-09T03:16:00.946Z,77.70
2019-02-09T03:18:40.904Z,77.90
2019-02-09T03:21:21.200Z,77.80
2019-02-09T03:24:01.237Z,78.50
2019-02-09T03:26:41.607Z,78.50
2019-02-09T03:32:34.551Z,77.80
2019-02-09T03:35:14.685Z,78.00
2019-02-09T03:37:54.770Z,78.60
2019-02-09T03:40:34.834Z,78.80
2019-02-09T03:43:15.090Z,77.40
2019-02-09T03:45:55.368Z,76.80
2019-02-09T03:48:35.535Z,76.30
2019-02-09T03:51:15.908Z,77.00
2019-02-09T03:53:56.095Z,77.60
2019-02-09T03:56:36.601Z,77.40
2019-02-09T03:59:16.702Z,76.90
2019-02-09T04:01:56.982Z,76.60
2019-02-09T04:04:37.293Z,75.90
2019-02-09T04:07:19.649Z,76.20
2019-02-09T04:09:59.669Z,75.00
2019-02-09T04:12:40.468Z,71.80
2019-02-09T04:15:20.939Z,71.30
2019-02-09T04:18:02.146Z,70.60
2019-02-09T04:20:42.033Z,71.50
2019-02-09T04:23:22.229Z,71.60
2019-02-09T04:26:03.335Z,71.40
2019-02-09T04:28:44.311Z,69.30
2019-02-09T04:31:25.518Z,69.20
2019-02-09T04:34:05.900Z,72.00
2019-02-09T04:36:46.183Z,73.00
2019-02-09T04:39:26.022Z,72.80
2019-02-09T04:42:06.118Z,74.20
2019-02-09T04:44:46.077Z,74.20
2019-02-09T04:47:25.981Z,73.30
2019-02-09T04:50:06.448Z,73.30
2019-02-09T04:52:46.472Z,74.10
2019-02-09T04:55:26.806Z,74.60
2019-02-09T04:58:06.802Z,75.90
2019-02-09T05:00:46.917Z,76.30
2019-02-09T05:03:27.168Z,76.60
2019-02-09T05:06:07.241Z,77.30
2019-02-09T05:08:47.221Z,77.50
2019-02-09T05:11:27.233Z,76.70
2019-02-09T05:14:07.397Z,77.10
2019-02-09T05:16:47.445Z,77.60
2019-02-09T05:19:27.425Z,78.10
2019-02-09T05:22:07.672Z,78.00
2019-02-09T05:24:49.242Z,78.20
2019-02-09T05:27:29.202Z,78.90
2019-02-09T05:30:09.358Z,78.50
2019-02-09T05:32:49.285Z,78.10
2019-02-09T05:35:29.296Z,78.80
2019-02-09T05:38:09.429Z,78.90
2019-02-09T05:40:49.546Z,78.40
2019-02-09T05:43:29.863Z,78.10
2019-02-09T05:46:10.096Z,78.20
2019-02-09T05:48:50.176Z,78.50
2019-02-09T05:51:30.332Z,78.30
2019-02-09T05:54:10.483Z,78.50
2019-02-09T05:56:50.488Z,78.50
2019-02-09T05:59:31.000Z,78.50
2019-02-09T06:02:11.131Z,79.20
2019-02-09T06:04:51.371Z,78.70
2019-02-09T06:07:31.571Z,78.80
2019-02-09T06:10:11.641Z,79.50
2019-02-09T06:12:51.816Z,80.90
2019-02-09T06:15:31.958Z,80.50
2019-02-09T06:18:12.141Z,78.90
2019-02-09T06:20:52.125Z,78.40
2019-02-09T06:23:32.293Z,77.20
2019-02-09T06:26:12.501Z,76.60
2019-02-09T06:28:52.716Z,76.20
2019-02-09T06:31:40.278Z,76.60
2019-02-09T06:34:14.970Z,76.90
2019-02-09T06:36:55.201Z,76.30
2019-02-09T06:39:35.525Z,75.80
2019-02-09T06:42:15.877Z,75.40
2019-02-09T06:44:57.732Z,75.80
2019-02-09T06:47:37.819Z,75.30
2019-02-09T06:50:18.109Z,75.40
2019-02-09T06:52:58.353Z,75.70
2019-02-09T06:55:38.546Z,75.10
2019-02-09T06:58:18.453Z,75.20
2019-02-09T07:00:58.636Z,74.90
2019-02-09T07:03:38.772Z,75.00
2019-02-09T07:06:18.872Z,75.00
2019-02-09T07:08:58.704Z,75.00
2019-02-09T07:11:38.952Z,74.30
2019-02-09T07:14:19.190Z,74.50
2019-02-09T07:16:58.875Z,74.60
2019-02-09T07:19:26.848Z,74.40
2019-02-09T07:22:13.851Z,74.10
2019-02-09T07:24:55.070Z,74.10
2019-02-09T07:27:35.624Z,73.60
2019-02-09T07:30:15.729Z,73.50
2019-02-09T07:32:56.152Z,73.30
2019-02-09T07:35:36.296Z,72.30
2019-02-09T07:38:16.520Z,72.20
2019-02-09T07:40:56.768Z,72.60
2019-02-09T07:43:36.711Z,72.20
2019-02-09T07:46:16.976Z,72.90
2019-02-09T07:48:57.109Z,72.70
2019-02-09T07:51:37.132Z,72.80
2019-02-09T07:54:17.172Z,73.50
2019-02-09T07:56:58.110Z,75.10
2019-02-09T07:59:38.616Z,75.00
2019-02-09T08:02:19.580Z,74.60
2019-02-09T08:05:00.038Z,74.00
2019-02-09T08:07:40.592Z,74.40
2019-02-09T08:10:20.912Z,74.70
2019-02-09T08:13:01.844Z,75.70
2019-02-09T08:15:42.490Z,75.90
2019-02-09T08:18:22.828Z,76.20
2019-02-09T08:21:02.631Z,76.70
2019-02-09T08:23:42.840Z,77.10
2019-02-09T08:26:22.820Z,77.10
2019-02-09T08:29:03.514Z,77.40
2019-02-09T08:31:44.020Z,77.50
2019-02-09T08:34:24.789Z,77.30
2019-02-09T08:37:05.153Z,77.00
2019-02-09T08:39:45.300Z,76.80
2019-02-09T08:42:25.401Z,76.20
2019-02-09T08:45:05.389Z,75.40
2019-02-09T08:47:45.492Z,74.90
2019-02-09T08:50:25.780Z,74.60
2019-02-09T08:53:06.045Z,74.20
2019-02-09T08:55:46.048Z,74.50
2019-02-09T08:58:26.265Z,73.80
2019-02-09T09:01:06.456Z,73.30
2019-02-09T09:03:46.561Z,73.20
2019-02-09T09:06:26.693Z,74.00
2019-02-09T09:09:07.044Z,73.60
2019-02-09T09:11:47.125Z,73.10
2019-02-09T09:17:25.370Z,74.40
2019-02-09T09:20:05.680Z,71.70
2019-02-09T09:22:45.683Z,70.70
2019-02-09T09:25:26.090Z,70.60
2019-02-09T09:28:05.938Z,70.70
2019-02-09T09:30:46.465Z,70.40
2019-02-09T09:33:26.513Z,69.80
2019-02-09T09:36:06.737Z,70.20
2019-02-09T09:38:47.221Z,70.80
2019-02-09T09:41:27.147Z,71.10
2019-02-09T09:44:07.224Z,71.90
2019-02-09T09:46:47.244Z,71.50
2019-02-09T09:49:27.612Z,72.60
2019-02-09T09:52:07.853Z,72.90
2019-02-09T09:54:47.981Z,72.60
2019-02-09T09:57:28.213Z,72.20
2019-02-09T10:00:08.324Z,72.00
2019-02-09T10:02:48.234Z,72.70
2019-02-09T10:05:28.313Z,73.00
2019-02-09T10:08:08.700Z,73.60
2019-02-09T10:10:48.756Z,74.60
2019-02-09T10:13:28.837Z,75.30
2019-02-09T10:16:08.913Z,75.90
2019-02-09T10:18:49.105Z,74.80
2019-02-09T10:21:29.254Z,73.70
2019-02-09T10:24:09.387Z,73.30
2019-02-09T10:26:49.676Z,73.80
2019-02-09T10:29:29.679Z,74.70
2019-02-09T10:32:09.873Z,74.80
2019-02-09T10:34:49.907Z,73.30
2019-02-09T10:37:29.969Z,74.20
2019-02-09T10:40:10.383Z,74.60
2019-02-09T10:42:50.607Z,74.60
2019-02-09T10:45:30.608Z,73.60
2019-02-09T10:48:10.888Z,74.00
2019-02-09T10:50:50.656Z,74.90
2019-02-09T10:53:31.036Z,75.10
2019-02-09T10:56:11.164Z,75.20
2019-02-09T10:58:51.097Z,75.70
2019-02-09T11:01:31.248Z,75.40
2019-02-09T11:04:11.486Z,75.50
2019-02-09T11:06:51.576Z,75.70
2019-02-09T11:09:31.757Z,76.90
2019-02-09T11:12:12.133Z,76.20
2019-02-09T11:14:52.312Z,76.80
2019-02-09T11:17:32.555Z,76.90
2019-02-09T11:20:12.481Z,75.80
2019-02-09T11:22:52.833Z,76.20
2019-02-09T11:25:32.865Z,76.40
2019-02-09T11:28:13.161Z,77.00
2019-02-09T11:30:53.264Z,77.40
2019-02-09T11:33:33.340Z,77.30
2019-02-09T11:36:13.782Z,77.50
2019-02-09T11:38:54.057Z,77.40
2019-02-09T11:41:34.348Z,77.70
2019-02-09T11:44:14.374Z,77.60
2019-02-09T11:46:54.499Z,77.00
2019-02-09T11:49:34.780Z,77.80
2019-02-09T11:52:14.899Z,77.70
2019-02-09T11:54:55.064Z,76.60
2019-02-09T11:57:35.003Z,77.20
2019-02-09T12:00:15.981Z,77.00
2019-02-09T12:02:43.644Z,77.90
2019-02-09T12:05:30.668Z,77.30
2019-02-09T12:08:17.697Z,77.70
2019-02-09T12:10:57.444Z,78.10
2019-02-09T12:13:37.734Z,78.40
2019-02-09T12:16:18.210Z,77.20
2019-02-09T12:18:57.886Z,77.20
2019-02-09T12:21:38.096Z,77.70
2019-02-09T12:24:18.238Z,78.10
2019-02-09T12:26:58.425Z,78.30
2019-02-09T12:29:38.884Z,78.20
2019-02-09T12:32:18.955Z,78.50
2019-02-09T12:35:00.797Z,78.00
2019-02-09T12:37:41.190Z,77.70
2019-02-09T12:40:21.285Z,78.20
2019-02-09T12:43:01.389Z,78.00
2019-02-09T12:45:41.779Z,77.70
2019-02-09T12:51:34.188Z,76.10
2019-02-09T12:54:16.696Z,77.30
2019-02-09T12:56:59.033Z,77.20
2019-02-09T12:59:38.861Z,77.50
2019-02-09T13:02:19.303Z,77.60
2019-02-09T13:04:59.054Z,77.70
2019-02-09T13:07:28.814Z,77.60
2019-02-09T13:10:16.205Z,77.80
2019-02-09T13:12:43.805Z,77.90
2019-02-09T13:15:14.013Z,78.10
2019-02-09T13:17:41.858Z,78.20
2019-02-09T13:20:12.772Z,78.70
2019-02-09T13:22:40.364Z,78.60
2019-02-09T13:25:08.728Z,78.70
2019-02-09T13:27:36.624Z,79.00
2019-02-09T13:30:06.416Z,79.20
2019-02-09T13:32:34.050Z,79.20
2019-02-09T13:35:01.655Z,79.10
2019-02-09T13:37:29.311Z,79.30
2019-02-09T13:39:56.914Z,79.40
2019-02-09T13:42:26.260Z,79.30
2019-02-09T13:44:54.119Z,79.60
2019-02-09T13:47:21.823Z,79.30
2019-02-09T13:49:49.415Z,79.20
2019-02-09T13:52:17.140Z,78.90
2019-02-09T13:54:44.709Z,78.70
2019-02-09T13:57:12.473Z,78.00
2019-02-09T13:59:40.032Z,77.00
2019-02-09T14:02:07.611Z,75.90
2019-02-09T14:04:35.270Z,76.10
2019-02-09T14:07:02.832Z,76.30
2019-02-09T14:09:30.439Z,75.90
2019-02-09T14:11:58.061Z,75.50
2019-02-09T14:14:26.492Z,75.00
2019-02-09T14:16:54.137Z,74.90
2019-02-09T14:19:22.020Z,75.00
2019-02-09T14:22:09.024Z,74.60
2019-02-09T14:24:48.734Z,74.00
2019-02-09T14:27:28.728Z,73.50
2019-02-09T14:30:10.469Z,71.60
2019-02-09T14:32:50.302Z,69.40
2019-02-09T14:35:30.268Z,68.20
2019-02-09T14:38:10.208Z,67.60
2019-02-09T14:40:50.201Z,67.50
2019-02-09T14:43:30.439Z,67.70
2019-02-09T14:46:11.464Z,67.70
2019-02-09T14:48:39.090Z,67.30
2019-02-09T14:51:26.116Z,67.20
2019-02-09T14:54:13.565Z,68.10
2019-02-09T14:56:54.056Z,68.60
2019-02-09T14:59:34.967Z,68.60
2019-02-09T15:02:15.420Z,69.40
2019-02-09T15:04:55.437Z,70.20
2019-02-09T15:07:35.705Z,70.40
2019-02-09T15:10:17.788Z,70.80
2019-02-09T15:12:45.579Z,70.80
2019-02-09T15:15:38.043Z,70.90
2019-02-09T15:18:25.028Z,71.50
2019-02-09T15:21:05.478Z,71.60
2019-02-09T15:23:45.794Z,71.80
2019-02-09T15:26:25.988Z,71.70
2019-02-09T15:29:06.368Z,72.20
2019-02-09T15:31:46.245Z,72.00
2019-02-09T15:34:26.489Z,71.40
2019-02-09T15:37:06.764Z,70.80
2019-02-09T15:39:46.978Z,71.70
2019-02-09T15:42:27.071Z,71.80
2019-02-09T15:45:07.433Z,71.70
2019-02-09T15:47:47.878Z,72.00
2019-02-09T15:50:27.612Z,71.70
2019-02-09T15:53:07.736Z,71.60
2019-02-09T15:55:47.990Z,71.20
2019-02-09T15:58:28.542Z,71.40
2019-02-09T16:01:08.224Z,71.50
2019-02-09T16:03:48.307Z,70.80
2019-02-09T16:06:28.352Z,70.70
2019-02-09T16:09:08.628Z,71.30
2019-02-09T16:11:49.653Z,71.10
2019-02-09T16:14:17.427Z,70.90
2019-02-09T16:17:04.700Z,71.10
2019-02-09T16:19:46.194Z,70.70
2019-02-09T16:22:26.689Z,70.80
2019-02-09T16:25:09.200Z,69.80
2019-02-09T16:27:49.784Z,69.30
2019-02-09T16:30:19.922Z,69.60
2019-02-09T16:33:06.945Z,69.20
2019-02-09T16:35:53.948Z,68.80
2019-02-09T16:38:34.489Z,67.80
2019-02-09T16:41:14.946Z,67.70
2019-02-09T16:43:54.950Z,67.40
2019-02-09T16:46:22.590Z,66.60
2019-02-09T16:48:50.213Z,65.80
2019-02-09T16:51:17.932Z,65.90
2019-02-09T16:53:45.640Z,66.00
2019-02-09T16:56:13.222Z,64.80
2019-02-09T16:58:40.987Z,64.10
2019-02-09T17:01:08.610Z,64.20
2019-02-09T17:03:36.223Z,63.50
2019-02-09T17:06:04.003Z,64.20
2019-02-09T17:08:31.644Z,64.40
2019-02-09T17:10:59.226Z,64.90
2019-02-09T17:13:26.920Z,65.30
2019-02-09T17:15:54.544Z,65.50
2019-02-09T17:18:22.166Z,66.20
2019-02-09T17:20:49.953Z,66.10
2019-02-09T17:23:17.588Z,66.40
2019-02-09T17:25:45.156Z,65.20
2019-02-09T17:28:12.733Z,65.20
2019-02-09T17:30:40.462Z,64.50
2019-02-09T17:33:08.177Z,64.00
2019-02-09T17:35:35.763Z,63.70
2019-02-09T17:38:03.784Z,63.60
2019-02-09T17:40:33.907Z,64.00
2019-02-09T17:43:01.743Z,63.80
2019-02-09T17:45:32.236Z,63.90
2019-02-09T17:47:59.975Z,64.70
2019-02-09T17:50:27.488Z,64.70
2019-02-09T17:52:55.084Z,64.70
2019-02-09T17:55:22.707Z,64.10
2019-02-09T17:57:50.391Z,64.20
2019-02-09T18:00:20.988Z,63.90
2019-02-09T18:02:48.611Z,63.80
2019-02-09T18:05:16.331Z,64.20
2019-02-09T18:07:44.859Z,63.80
2019-02-09T18:10:16.579Z,63.30
2019-02-09T18:12:45.329Z,62.20
2019-02-09T18:15:14.426Z,61.60
2019-02-09T18:17:42.682Z,61.40
2019-02-09T18:20:11.271Z,62.20
2019-02-09T18:22:38.929Z,62.10
2019-02-09T18:25:08.795Z,61.60
2019-02-09T18:27:36.504Z,61.30
2019-02-09T18:30:06.252Z,60.50
2019-02-09T18:32:33.882Z,59.90
2019-02-09T18:35:01.544Z,60.00
2019-02-09T18:37:29.166Z,59.30
2019-02-09T18:39:56.744Z,59.60
2019-02-09T18:42:24.368Z,59.60
2019-02-09T18:44:52.014Z,59.20
2019-02-09T18:47:19.709Z,59.50
2019-02-09T18:49:47.456Z,59.90
2019-02-09T18:52:15.363Z,60.60
2019-02-09T18:54:43.029Z,62.20
2019-02-09T18:57:10.596Z,63.60
2019-02-09T18:59:38.655Z,65.30
2019-02-09T19:02:06.684Z,66.70
2019-02-09T19:04:34.272Z,67.80
2019-02-09T19:07:01.868Z,68.50
2019-02-09T19:09:29.520Z,69.40
2019-02-09T19:11:57.151Z,70.00
2019-02-09T19:14:24.795Z,70.80
2019-02-09T19:16:52.452Z,71.30
2019-02-09T19:19:20.073Z,71.70
2019-02-09T19:21:47.693Z,72.20
2019-02-09T19:24:15.402Z,72.30
2019-02-09T19:26:44.889Z,72.80
2019-02-09T19:29:12.484Z,73.10
2019-02-09T19:31:40.131Z,73.50
2019-02-09T19:34:07.835Z,73.40
2019-02-09T19:36:35.422Z,73.60
2019-02-09T19:39:06.617Z,74.30
2019-02-09T19:41:34.259Z,74.40
2019-02-09T19:44:01.824Z,75.00
2019-02-09T19:46:29.760Z,75.30
2019-02-09T19:48:57.346Z,76.10
2019-02-09T19:51:24.912Z,76.80
2019-02-09T19:53:52.517Z,76.80
2019-02-09T19:56:20.123Z,77.20
2019-02-09T19:58:47.691Z,77.40
2019-02-09T20:01:15.439Z,77.70
2019-02-09T20:03:43.108Z,77.80
2019-02-09T20:06:10.677Z,78.10
2019-02-09T20:08:38.283Z,77.70
2019-02-09T20:11:06.931Z,77.60
2019-02-09T20:13:34.463Z,78.30
2019-02-09T20:16:02.052Z,79.10
2019-02-09T20:18:29.633Z,79.30
2019-02-09T20:20:57.271Z,78.90
2019-02-09T20:23:24.888Z,78.80
2019-02-09T20:25:52.641Z,78.70
2019-02-09T20:28:20.326Z,78.60
2019-02-09T20:30:47.987Z,79.60
2019-02-09T20:33:15.583Z,79.40
2019-02-09T20:35:43.278Z,79.40
2019-02-09T20:38:10.843Z,79.90
2019-02-09T20:40:44.000Z,79.90
2019-02-09T20:43:13.299Z,79.70
2019-02-09T20:45:40.890Z,79.70
2019-02-09T20:48:08.579Z,80.00
2019-02-09T20:50:36.179Z,79.90
2019-02-09T20:53:04.624Z,80.10
2019-02-09T20:55:32.184Z,80.20
2019-02-09T20:57:59.809Z,80.60
2019-02-09T21:00:27.416Z,80.20
2019-02-09T21:02:55.362Z,80.10
2019-02-09T21:05:25.916Z,80.00
2019-02-09T21:07:53.805Z,80.10
2019-02-09T21:10:23.183Z,80.80
2019-02-09T21:12:50.767Z,81.10
2019-02-09T21:15:20.778Z,81.30
2019-02-09T21:17:48.520Z,81.30
2019-02-09T21:20:16.853Z,81.40
2019-02-09T21:22:44.524Z,81.40
2019-02-09T21:25:17.335Z,81.20
2019-02-09T21:27:45.115Z,81.80
2019-02-09T21:30:14.789Z,82.40
2019-02-09T21:32:42.467Z,81.60
2019-02-09T21:35:10.187Z,81.70
2019-02-09T21:37:37.750Z,81.70
2019-02-09T21:40:06.997Z,82.00
2019-02-09T21:42:34.593Z,82.20
2019-02-09T21:45:02.163Z,82.40
2019-02-09T21:47:29.789Z,82.30
2019-02-09T21:49:57.374Z,82.40
2019-02-09T21:52:24.971Z,82.70
2019-02-09T21:54:52.575Z,83.10
2019-02-09T21:57:20.187Z,83.30
2019-02-09T21:59:47.942Z,83.30
2019-02-09T22:02:15.596Z,83.70
2019-02-09T22:04:43.303Z,84.20
2019-02-09T22:07:10.896Z,84.30
2019-02-09T22:09:38.466Z,84.20
2019-02-09T22:12:06.154Z,84.30
2019-02-09T22:14:33.796Z,84.50
2019-02-09T22:17:01.755Z,84.40
2019-02-09T22:19:29.608Z,84.50
2019-02-09T22:21:57.619Z,84.20
2019-02-09T22:24:25.292Z,84.60
2019-02-09T22:26:52.960Z,84.50
2019-02-09T22:29:20.648Z,84.30
2019-02-09T22:31:49.175Z,84.00
2019-02-09T22:34:16.816Z,83.50
2019-02-09T22:36:44.490Z,83.00
2019-02-09T22:39:12.068Z,82.80
2019-02-09T22:41:39.726Z,82.70
2019-02-09T22:44:07.360Z,82.70
2019-02-09T22:46:34.942Z,82.10
2019-02-09T22:49:02.600Z,82.50
2019-02-09T22:51:30.251Z,82.80
2019-02-09T22:53:57.818Z,83.00
2019-02-09T22:56:25.403Z,83.20
2019-02-09T22:58:52.994Z,82.60
2019-02-09T23:01:37.929Z,82.90
2019-02-09T23:04:31.398Z,83.70
2019-02-09T23:07:03.699Z,83.90
2019-02-09T23:09:32.335Z,83.30
2019-02-09T23:12:00.835Z,83.90
2019-02-09T23:14:28.639Z,84.20
2019-02-09T23:16:56.404Z,84.10
2019-02-09T23:19:24.269Z,84.40
2019-02-09T23:22:11.317Z,84.90
2019-02-09T23:24:58.344Z,85.20
2019-02-09T23:27:45.388Z,85.40
2019-02-09T23:30:25.952Z,85.50
2019-02-09T23:33:06.148Z,85.50
2019-02-09T23:35:46.635Z,86.20
2019-02-09T23:38:26.926Z,86.40
2019-02-09T23:41:07.230Z,86.40
2019-02-09T23:43:47.607Z,86.70
2019-02-09T23:46:27.548Z,86.80
2019-02-09T23:49:07.613Z,87.50
2019-02-09T23:51:47.809Z,86.00
2019-02-09T23:54:27.777Z,85.50
